Time;durP1;ratioP1;P1;durP2;ratioP2;P2;SDS_P1;SDS_P2;PMS_P1;PMS_P2;Temp;Humidity;BMP_temperature;BMP_pressure;BME280_temperature;BME280_humidity;BME280_pressure;Samples;Min_cycle;Max_cycle;Signal;HPM_P1;HPM_P2
2023/05/20 00:00:09;;;;;;;10.63;3.63;;;12.10;99.90;;;;;;5102509;28;20830;-67
2023/05/20 00:02:37;;;;;;;3.83;2.50;;;12.30;1.00;;;;;;5106277;28;20535;-67
2023/05/20 00:05:04;;;;;;;2.03;1.83;;;12.40;1.00;;;;;;5110794;28;20447;-66
2023/05/20 00:07:32;;;;;;;2.10;1.37;;;12.20;20.00;;;;;;5110680;28;20459;-68
2023/05/20 00:09:59;;;;;;;3.80;2.07;;;12.00;99.90;;;;;;5110526;28;20475;-68
2023/05/20 00:12:25;;;;;;;3.00;1.57;;;12.20;1.00;;;;;;5111172;28;20542;-68
2023/05/20 00:14:52;;;;;;;2.50;1.90;;;12.00;99.90;;;;;;5110716;28;20535;-68
2023/05/20 00:17:19;;;;;;;3.23;1.97;;;12.00;99.90;;;;;;5110311;28;20454;-68
2023/05/20 00:19:47;;;;;;;5.57;2.80;;;12.00;99.90;;;;;;5113595;28;20491;-68
2023/05/20 00:22:14;;;;;;;3.50;1.93;;;12.00;99.90;;;;;;5115021;28;20526;-68
2023/05/20 00:24:41;;;;;;;10.90;4.10;;;12.10;99.90;;;;;;5114989;28;20447;-69
2023/05/20 00:27:07;;;;;;;26.53;7.53;;;12.20;99.90;;;;;;5115348;28;20447;-67
2023/05/20 00:29:34;;;;;;;3.33;2.30;;;12.20;99.90;;;;;;5114665;28;20972;-67
2023/05/20 00:32:01;;;;;;;10.20;2.20;;;12.30;1.00;;;;;;5114561;28;20465;-68
2023/05/20 00:34:28;;;;;;;14.07;5.60;;;12.30;1.00;;;;;;5114730;28;20546;-68
2023/05/20 00:36:56;;;;;;;10.57;3.00;;;12.30;99.90;;;;;;5113254;28;20451;-67
2023/05/20 00:39:23;;;;;;;3.87;2.87;;;12.30;64.80;;;;;;5114690;28;20481;-67
2023/05/20 00:41:50;;;;;;;3.90;1.93;;;12.40;1.00;;;;;;5113874;28;20443;-68
2023/05/20 00:44:17;;;;;;;8.77;3.50;;;12.30;1.00;;;;;;5114741;28;20546;-68
2023/05/20 00:46:44;;;;;;;2.47;1.70;;;12.30;1.00;;;;;;5113425;28;20475;-68
2023/05/20 00:49:12;;;;;;;5.87;2.23;;;12.20;1.00;;;;;;5114494;28;20853;-68
2023/05/20 00:51:38;;;;;;;2.80;1.50;;;12.10;1.00;;;;;;5114350;28;20443;-69
2023/05/20 00:54:07;;;;;;;2.87;1.60;;;12.00;73.50;;;;;;5114501;28;20537;-68
2023/05/20 00:56:33;;;;;;;3.07;1.77;;;12.20;1.00;;;;;;5105085;28;20444;-68
2023/05/20 00:59:00;;;;;;;9.33;2.77;;;12.30;26.90;;;;;;5113643;28;20606;-68
2023/05/20 01:01:27;;;;;;;2.43;1.43;;;12.40;1.00;;;;;;5100311;28;20450;-67
2023/05/20 01:03:54;;;;;;;3.93;2.10;;;12.40;1.00;;;;;;5113773;28;20443;-68
2023/05/20 01:06:21;;;;;;;3.13;2.13;;;12.40;1.00;;;;;;5113459;28;20881;-68
2023/05/20 01:08:48;;;;;;;3.00;1.90;;;12.40;1.00;;;;;;5113362;28;20970;-69
2023/05/20 01:11:22;;;;;;;3.70;2.27;;;12.50;1.00;;;;;;5114121;28;20451;-68
2023/05/20 01:13:55;;;;;;;3.17;1.87;;;12.40;1.00;;;;;;5113464;28;20488;-68
2023/05/20 01:16:24;;;;;;;4.40;1.70;;;12.50;1.00;;;;;;5113719;28;20478;-68
2023/05/20 01:18:54;;;;;;;2.17;1.60;;;12.60;99.90;;;;;;5113193;28;20505;-68
2023/05/20 01:21:21;;;;;;;2.83;1.83;;;12.70;99.90;;;;;;5113912;28;20915;-68
2023/05/20 01:23:50;;;;;;;2.60;1.50;;;12.70;1.00;;;;;;5112758;28;20931;-68
2023/05/20 01:26:17;;;;;;;3.13;1.77;;;12.70;1.00;;;;;;5111329;28;20965;-68
2023/05/20 01:28:44;;;;;;;3.00;1.87;;;12.70;1.00;;;;;;5113107;28;20451;-68
2023/05/20 01:31:15;;;;;;;3.20;1.70;;;12.70;1.00;;;;;;5112439;28;20538;-68
2023/05/20 01:33:43;;;;;;;7.20;1.80;;;12.60;1.00;;;;;;5112779;28;20847;-68
2023/05/20 01:36:10;;;;;;;3.83;2.43;;;12.70;99.90;;;;;;5113214;28;20451;-68
2023/05/20 01:38:40;;;;;;;3.70;2.43;;;12.70;1.00;;;;;;5113433;28;20509;-68
2023/05/20 01:41:08;;;;;;;2.90;2.00;;;12.60;1.00;;;;;;5113724;28;20846;-68
2023/05/20 01:43:36;;;;;;;2.83;1.67;;;12.70;1.00;;;;;;5113337;28;20934;-68
2023/05/20 01:46:06;;;;;;;3.53;2.27;;;12.60;99.90;;;;;;5112495;28;20443;-67
2023/05/20 01:48:33;;;;;;;3.10;2.23;;;12.60;1.00;;;;;;5113402;28;20443;-68
2023/05/20 01:51:00;;;;;;;2.80;1.73;;;12.60;1.00;;;;;;5113010;28;21051;-68
2023/05/20 01:53:27;;;;;;;5.03;2.37;;;12.60;1.00;;;;;;5112838;28;20959;-68
2023/05/20 01:55:53;;;;;;;2.50;2.00;;;12.70;1.00;;;;;;5112317;28;20440;-68
2023/05/20 01:58:21;;;;;;;3.67;2.30;;;12.70;99.90;;;;;;5113079;28;20454;-68
2023/05/20 02:00:48;;;;;;;4.30;2.10;;;12.70;1.00;;;;;;5112505;28;20805;-68
2023/05/20 02:03:15;;;;;;;3.20;1.80;;;12.80;99.90;;;;;;5113117;28;20451;-68
2023/05/20 02:05:42;;;;;;;2.60;1.30;;;12.80;99.90;;;;;;5111986;28;20447;-69
2023/05/20 02:08:09;;;;;;;4.23;2.67;;;12.80;99.90;;;;;;5112456;28;20465;-68
2023/05/20 02:10:36;;;;;;;10.93;5.83;;;12.80;99.90;;;;;;5113040;28;20480;-69
2023/05/20 02:13:03;;;;;;;8.37;5.80;;;12.70;1.00;;;;;;5112068;28;20505;-69
2023/05/20 02:15:31;;;;;;;3.80;2.23;;;12.70;1.00;;;;;;5112465;28;20966;-68
2023/05/20 02:17:57;;;;;;;3.27;2.00;;;12.70;1.00;;;;;;5111588;28;20803;-68
2023/05/20 02:20:24;;;;;;;3.83;1.70;;;12.70;1.00;;;;;;5112322;28;20994;-68
2023/05/20 02:22:51;;;;;;;4.73;1.90;;;12.60;52.80;;;;;;5112071;28;20809;-69
2023/05/20 02:25:18;;;;;;;3.17;2.13;;;12.70;1.00;;;;;;5111040;28;20927;-68
2023/05/20 02:27:45;;;;;;;3.43;2.40;;;12.70;1.00;;;;;;5111846;28;20450;-69
2023/05/20 02:30:12;;;;;;;3.00;2.20;;;12.80;1.00;;;;;;5112468;28;20448;-69
2023/05/20 02:32:41;;;;;;;4.53;2.00;;;12.80;1.00;;;;;;5112471;28;20930;-69
2023/05/20 02:35:08;;;;;;;5.50;2.23;;;12.90;99.90;;;;;;5112584;28;20467;-68
2023/05/20 02:37:35;;;;;;;3.37;2.00;;;12.90;1.00;;;;;;5111892;28;20460;-68
2023/05/20 02:40:01;;;;;;;7.27;2.63;;;12.90;27.50;;;;;;5111659;28;20840;-68
2023/05/20 02:42:28;;;;;;;4.67;2.70;;;12.90;99.90;;;;;;5111764;28;20459;-69
2023/05/20 02:44:57;;;;;;;3.07;1.93;;;12.90;99.90;;;;;;5111432;28;20447;-69
2023/05/20 02:47:24;;;;;;;2.57;2.03;;;12.90;99.90;;;;;;5111863;28;20453;-68
2023/05/20 02:49:53;;;;;;;3.87;1.90;;;12.90;1.00;;;;;;5111307;28;20538;-69
2023/05/20 02:52:20;;;;;;;4.80;2.90;;;12.90;1.00;;;;;;5112062;28;20451;-69
2023/05/20 02:54:47;;;;;;;3.30;2.50;;;13.00;99.90;;;;;;5111643;28;20452;-69
2023/05/20 02:57:15;;;;;;;4.33;2.37;;;13.00;1.00;;;;;;5103816;28;20450;-69
2023/05/20 02:59:42;;;;;;;3.20;2.23;;;13.00;1.00;;;;;;5106685;28;20472;-69
2023/05/20 03:02:08;;;;;;;3.30;2.10;;;12.90;1.70;;;;;;5103743;28;20448;-68
2023/05/20 03:04:37;;;;;;;2.80;2.10;;;12.90;10.10;;;;;;5112004;28;20447;-68
2023/05/20 03:07:06;;;;;;;2.47;1.63;;;12.90;1.00;;;;;;5110584;28;20451;-68
2023/05/20 03:09:33;;;;;;;3.57;2.30;;;12.90;1.00;;;;;;5111528;28;20487;-68
2023/05/20 03:11:59;;;;;;;2.57;2.10;;;12.90;99.90;;;;;;5111263;28;20452;-68
2023/05/20 03:14:26;;;;;;;3.83;2.60;;;12.90;99.90;;;;;;5111806;28;20525;-67
2023/05/20 03:16:54;;;;;;;2.73;2.07;;;12.80;99.90;;;;;;5110921;28;20440;-67
2023/05/20 03:19:21;;;;;;;2.90;1.80;;;12.80;1.00;;;;;;5111627;28;20507;-68
2023/05/20 03:21:49;;;;;;;2.93;1.90;;;12.80;1.00;;;;;;5110763;28;20447;-68
2023/05/20 03:24:17;;;;;;;3.60;2.37;;;12.80;1.00;;;;;;5111566;28;20455;-67
2023/05/20 03:26:45;;;;;;;3.20;2.70;;;12.80;99.90;;;;;;5109594;28;20447;-67
2023/05/20 03:29:12;;;;;;;2.93;2.10;;;12.80;1.00;;;;;;5111606;28;20762;-68
2023/05/20 03:31:40;;;;;;;2.90;2.07;;;12.80;1.00;;;;;;5111666;28;20447;-67
2023/05/20 03:34:08;;;;;;;2.53;1.77;;;12.80;1.00;;;;;;5111445;28;20447;-68
2023/05/20 03:36:34;;;;;;;3.20;2.33;;;12.80;1.00;;;;;;5111374;28;20444;-68
2023/05/20 03:39:03;;;;;;;2.63;2.20;;;12.70;1.00;;;;;;5110828;28;20940;-67
2023/05/20 03:41:31;;;;;;;3.13;2.10;;;12.70;1.00;;;;;;5111637;28;20460;-67
2023/05/20 03:43:58;;;;;;;4.40;1.80;;;12.60;1.00;;;;;;5110855;28;20458;-68
2023/05/20 03:46:25;;;;;;;2.40;2.00;;;12.60;87.30;;;;;;5110959;28;20534;-67
2023/05/20 03:48:52;;;;;;;4.07;2.60;;;12.60;99.90;;;;;;5110900;28;20456;-67
2023/05/20 03:51:18;;;;;;;3.03;2.13;;;12.60;99.90;;;;;;5111215;28;20463;-68
2023/05/20 03:53:45;;;;;;;3.17;2.53;;;12.60;99.90;;;;;;5101179;28;20454;-67
2023/05/20 03:56:12;;;;;;;2.53;2.10;;;12.60;99.90;;;;;;5106725;28;20448;-68
2023/05/20 03:58:40;;;;;;;2.60;2.03;;;12.50;99.90;;;;;;5115824;28;20873;-67
2023/05/20 04:01:07;;;;;;;3.10;1.90;;;12.60;99.90;;;;;;5115072;28;21048;-67
2023/05/20 04:03:34;;;;;;;2.90;2.43;;;12.50;99.90;;;;;;5115240;28;20455;-67
2023/05/20 04:06:01;;;;;;;4.50;2.50;;;12.60;99.90;;;;;;5114483;28;20479;-67
2023/05/20 04:08:28;;;;;;;3.93;2.57;;;12.60;99.90;;;;;;5115047;28;20479;-68
2023/05/20 04:10:56;;;;;;;3.20;2.50;;;12.70;99.90;;;;;;5114650;28;20451;-68
2023/05/20 04:13:24;;;;;;;3.00;2.50;;;12.80;78.50;;;;;;5115295;28;20450;-67
2023/05/20 04:15:52;;;;;;;2.87;2.07;;;12.80;85.00;;;;;;5114037;28;20974;-68
2023/05/20 04:18:19;;;;;;;3.93;2.10;;;12.90;1.00;;;;;;5114979;28;20443;-68
2023/05/20 04:20:46;;;;;;;3.07;2.17;;;13.00;1.00;;;;;;5114493;28;20475;-68
2023/05/20 04:23:13;;;;;;;3.90;2.47;;;13.00;1.00;;;;;;5114903;28;20440;-68
2023/05/20 04:25:41;;;;;;;2.53;2.10;;;13.10;99.90;;;;;;5113014;28;20803;-70
2023/05/20 04:28:09;;;;;;;3.03;2.10;;;13.10;1.00;;;;;;5115273;28;20470;-67
2023/05/20 04:30:36;;;;;;;3.37;2.00;;;13.10;99.90;;;;;;5114826;28;20494;-67
2023/05/20 04:33:05;;;;;;;3.83;2.10;;;13.20;1.00;;;;;;5114456;28;20447;-68
2023/05/20 04:35:33;;;;;;;4.80;2.40;;;13.20;1.00;;;;;;5114492;28;20870;-67
2023/05/20 04:38:00;;;;;;;5.60;2.40;;;13.20;1.00;;;;;;5114241;28;21063;-67
2023/05/20 04:40:27;;;;;;;4.77;2.50;;;13.30;99.90;;;;;;5114699;28;20485;-68
2023/05/20 04:42:54;;;;;;;2.97;2.03;;;13.30;99.90;;;;;;5114012;28;20444;-67
2023/05/20 04:45:22;;;;;;;2.83;2.10;;;13.20;99.90;;;;;;5101251;28;20534;-67
2023/05/20 04:47:49;;;;;;;2.57;2.20;;;13.20;99.90;;;;;;5113970;28;20455;-68
2023/05/20 04:50:17;;;;;;;2.40;2.00;;;13.20;99.90;;;;;;5114575;28;20502;-68
2023/05/20 04:52:44;;;;;;;2.60;1.93;;;13.30;99.90;;;;;;5113901;28;20459;-68
2023/05/20 04:55:12;;;;;;;3.07;2.20;;;13.30;99.90;;;;;;5112029;28;20533;-68
2023/05/20 04:57:40;;;;;;;3.10;2.20;;;13.30;99.90;;;;;;5108476;28;20470;-68
2023/05/20 05:00:09;;;;;;;3.03;2.10;;;13.40;83.50;;;;;;5105960;28;20983;-68
2023/05/20 05:02:36;;;;;;;3.10;2.53;;;13.40;1.00;;;;;;5109309;28;20931;-67
2023/05/20 05:05:02;;;;;;;3.43;2.00;;;13.50;99.90;;;;;;5113725;28;20440;-67
2023/05/20 05:07:31;;;;;;;3.60;2.30;;;13.50;1.00;;;;;;5113257;28;20957;-68
2023/05/20 05:09:57;;;;;;;4.40;2.60;;;13.60;99.90;;;;;;5113654;28;20486;-68
2023/05/20 05:12:24;;;;;;;3.30;2.03;;;13.70;34.50;;;;;;5113776;28;20451;-67
2023/05/20 05:14:52;;;;;;;3.50;2.60;;;13.70;1.00;;;;;;5113625;28;20475;-67
2023/05/20 05:17:19;;;;;;;3.53;2.70;;;13.70;99.90;;;;;;5113484;28;20458;-68
2023/05/20 05:19:45;;;;;;;4.80;2.37;;;13.70;99.90;;;;;;5113557;28;20453;-68
2023/05/20 05:22:12;;;;;;;3.53;2.40;;;13.80;1.00;;;;;;5113709;28;20450;-67
2023/05/20 05:24:40;;;;;;;3.57;2.13;;;13.80;99.90;;;;;;5113969;28;20448;-67
2023/05/20 05:27:07;;;;;;;3.60;2.20;;;13.80;1.00;;;;;;5111687;28;20466;-67
2023/05/20 05:29:34;;;;;;;3.60;2.90;;;13.90;99.90;;;;;;5113847;28;20439;-67
2023/05/20 05:32:01;;;;;;;3.30;2.13;;;13.90;51.40;;;;;;5112880;28;20539;-67
2023/05/20 05:34:27;;;;;;;2.83;1.80;;;14.00;1.00;;;;;;5113752;28;20918;-67
2023/05/20 05:36:54;;;;;;;3.30;2.73;;;14.00;99.90;;;;;;5112706;28;20443;-67
2023/05/20 05:39:21;;;;;;;3.43;3.07;;;14.10;99.90;;;;;;5113361;28;20444;-67
2023/05/20 05:41:49;;;;;;;3.00;2.00;;;14.10;99.90;;;;;;5112741;28;20509;-68
2023/05/20 05:44:16;;;;;;;3.17;2.00;;;14.20;1.00;;;;;;5113333;28;20444;-67
2023/05/20 05:46:43;;;;;;;4.53;2.43;;;14.20;39.40;;;;;;5112226;28;20943;-67
2023/05/20 05:49:10;;;;;;;3.00;1.90;;;14.20;1.00;;;;;;5113623;28;20531;-68
2023/05/20 05:51:37;;;;;;;2.77;2.47;;;14.30;1.00;;;;;;5113518;28;20447;-67
2023/05/20 05:54:04;;;;;;;3.90;2.40;;;14.40;99.90;;;;;;5112377;28;20443;-68
2023/05/20 05:56:30;;;;;;;2.80;1.80;;;14.50;99.90;;;;;;5103455;28;20458;-67
2023/05/20 05:58:59;;;;;;;4.17;2.20;;;14.60;44.30;;;;;;5112352;28;20992;-67
2023/05/20 06:01:25;;;;;;;3.53;2.30;;;14.60;2.10;;;;;;5099204;28;20479;-67
2023/05/20 06:03:52;;;;;;;3.47;1.97;;;14.60;26.50;;;;;;5112522;28;20447;-68
2023/05/20 06:06:19;;;;;;;2.83;1.60;;;14.60;99.90;;;;;;5112411;28;20456;-67
2023/05/20 06:08:46;;;;;;;2.60;1.90;;;14.70;27.80;;;;;;5112151;28;20486;-68
2023/05/20 06:11:13;;;;;;;5.27;2.73;;;14.70;1.00;;;;;;5112629;28;20950;-68
2023/05/20 06:13:40;;;;;;;2.80;2.03;;;14.80;1.00;;;;;;5113157;28;20452;-67
2023/05/20 06:16:08;;;;;;;4.00;2.40;;;14.80;1.00;;;;;;5112026;28;20477;-67
2023/05/20 06:18:35;;;;;;;2.90;2.30;;;14.90;1.00;;;;;;5113248;28;20435;-67
2023/05/20 06:21:03;;;;;;;3.80;2.63;;;14.90;1.00;;;;;;5112166;28;20483;-67
2023/05/20 06:23:30;;;;;;;3.57;1.97;;;15.00;1.00;;;;;;5112285;28;20489;-68
2023/05/20 06:25:58;;;;;;;3.80;2.47;;;15.00;1.00;;;;;;5111794;28;20450;-67
2023/05/20 06:28:25;;;;;;;2.80;2.00;;;15.10;1.00;;;;;;5112628;28;20439;-68
2023/05/20 06:30:54;;;;;;;3.40;2.43;;;15.10;1.00;;;;;;5112158;28;20463;-68
2023/05/20 06:33:25;;;;;;;3.20;2.60;;;15.10;1.00;;;;;;5112462;28;20502;-68
2023/05/20 06:35:52;;;;;;;3.40;2.80;;;15.20;99.90;;;;;;5111738;28;20436;-67
2023/05/20 06:38:19;;;;;;;4.07;2.17;;;15.30;99.90;;;;;;5111790;28;20455;-68
2023/05/20 06:40:45;;;;;;;5.90;3.13;;;15.40;99.90;;;;;;5111843;28;20560;-67
2023/05/20 06:43:12;;;;;;;5.63;2.77;;;15.40;99.90;;;;;;5112557;28;20459;-67
2023/05/20 06:45:40;;;;;;;2.80;2.30;;;15.50;99.90;;;;;;5111735;28;20521;-67
2023/05/20 06:48:07;;;;;;;4.30;2.40;;;15.40;99.90;;;;;;5111995;28;20451;-67
2023/05/20 06:50:35;;;;;;;2.93;1.90;;;15.40;99.90;;;;;;5112194;28;20439;-68
2023/05/20 06:53:03;;;;;;;2.93;2.03;;;15.50;99.90;;;;;;5111164;28;20927;-68
2023/05/20 06:55:30;;;;;;;4.07;2.20;;;15.60;46.70;;;;;;5106828;28;20453;-67
2023/05/20 06:57:57;;;;;;;4.70;2.33;;;15.60;99.90;;;;;;5107956;28;20454;-67
2023/05/20 07:00:24;;;;;;;3.77;2.70;;;15.70;99.90;;;;;;5101407;28;20476;-67
2023/05/20 07:02:51;;;;;;;3.10;2.10;;;15.70;62.30;;;;;;5108233;28;20444;-68
2023/05/20 07:05:17;;;;;;;3.23;2.03;;;15.90;1.00;;;;;;5111417;28;20806;-68
2023/05/20 07:07:46;;;;;;;3.27;2.40;;;15.90;1.00;;;;;;5111323;28;20452;-67
2023/05/20 07:10:12;;;;;;;4.30;2.53;;;16.00;1.00;;;;;;5111923;28;20471;-67
2023/05/20 07:12:40;;;;;;;3.63;2.50;;;16.00;1.00;;;;;;5111904;28;20470;-67
2023/05/20 07:15:08;;;;;;;4.17;2.90;;;16.10;1.00;;;;;;5111967;28;20447;-67
2023/05/20 07:17:35;;;;;;;4.40;2.27;;;16.20;99.90;;;;;;5111500;28;20454;-67
2023/05/20 07:20:02;;;;;;;2.93;1.90;;;16.20;99.90;;;;;;5111200;28;20443;-67
2023/05/20 07:22:29;;;;;;;3.80;2.47;;;16.30;99.90;;;;;;5111077;28;20499;-67
2023/05/20 07:24:58;;;;;;;3.40;2.60;;;16.30;99.90;;;;;;5110839;28;20530;-68
2023/05/20 07:27:25;;;;;;;2.87;2.37;;;16.20;99.90;;;;;;5110325;28;20483;-68
2023/05/20 07:29:51;;;;;;;3.40;2.47;;;16.30;99.90;;;;;;5110900;28;20794;-68
2023/05/20 07:32:18;;;;;;;3.27;2.50;;;16.20;99.90;;;;;;5111462;28;20455;-68
2023/05/20 07:34:45;;;;;;;3.77;2.67;;;16.30;99.90;;;;;;5111075;28;20458;-67
2023/05/20 07:37:12;;;;;;;3.00;2.40;;;16.40;99.90;;;;;;5110696;28;20522;-68
2023/05/20 07:39:39;;;;;;;2.30;2.10;;;16.40;99.90;;;;;;5111159;28;20452;-68
2023/05/20 07:42:07;;;;;;;2.60;2.20;;;16.40;99.90;;;;;;5111162;28;20532;-67
2023/05/20 07:44:34;;;;;;;2.80;2.13;;;16.40;99.90;;;;;;5111294;28;20538;-68
2023/05/20 07:47:00;;;;;;;3.87;2.13;;;16.30;99.90;;;;;;5110478;28;20882;-67
2023/05/20 07:49:27;;;;;;;3.20;2.17;;;16.20;99.90;;;;;;5111295;28;20453;-68
2023/05/20 07:51:54;;;;;;;2.90;2.47;;;16.10;99.90;;;;;;5110579;28;20799;-67
2023/05/20 07:54:21;;;;;;;3.60;2.47;;;16.20;99.90;;;;;;5111217;28;20477;-68
2023/05/20 07:56:48;;;;;;;4.43;2.60;;;16.20;99.90;;;;;;5101842;28;20447;-67
2023/05/20 07:59:16;;;;;;;2.83;2.27;;;16.30;99.90;;;;;;5110083;28;20787;-67
2023/05/20 08:01:43;;;;;;;3.93;2.77;;;16.50;99.90;;;;;;5097892;28;20475;-67
2023/05/20 08:04:10;;;;;;;3.00;2.60;;;16.60;99.90;;;;;;5111259;28;20462;-67
2023/05/20 08:06:37;;;;;;;3.23;2.53;;;16.60;99.90;;;;;;5111046;28;20444;-67
2023/05/20 08:09:04;;;;;;;3.80;2.37;;;16.70;99.90;;;;;;5110346;28;20471;-67
2023/05/20 08:11:31;;;;;;;2.50;1.70;;;16.80;99.90;;;;;;5111205;28;20898;-67
2023/05/20 08:13:58;;;;;;;3.23;2.00;;;;;;;;;;5110360;28;20938;-67
2023/05/20 08:16:26;;;;;;;3.50;2.47;;;17.00;77.80;;;;;;5110777;28;20470;-67
2023/05/20 08:18:53;;;;;;;2.87;2.40;;;17.40;1.00;;;;;;5110617;28;20448;-67
2023/05/20 08:21:20;;;;;;;2.57;2.10;;;17.40;1.00;;;;;;5110735;28;20575;-68
2023/05/20 08:23:47;;;;;;;3.23;2.10;;;17.50;1.00;;;;;;5110012;28;20443;-67
2023/05/20 08:26:14;;;;;;;2.83;2.30;;;17.50;1.00;;;;;;5109903;28;20455;-68
2023/05/20 08:28:40;;;;;;;3.87;2.03;;;17.50;1.00;;;;;;5110478;28;20463;-71
2023/05/20 08:31:07;;;;;;;3.23;2.40;;;17.60;1.00;;;;;;5110863;28;20451;-68
2023/05/20 08:33:35;;;;;;;3.10;2.17;;;17.60;1.00;;;;;;5110851;28;20482;-67
2023/05/20 08:36:02;;;;;;;3.57;2.60;;;17.50;1.00;;;;;;5109714;28;20532;-67
2023/05/20 08:38:29;;;;;;;3.20;2.33;;;17.60;1.00;;;;;;5110319;28;20455;-67
2023/05/20 08:40:57;;;;;;;3.50;1.93;;;17.70;1.00;;;;;;5113189;28;20479;-67
2023/05/20 08:43:24;;;;;;;3.37;2.30;;;17.80;1.00;;;;;;5114412;28;20451;-67
2023/05/20 08:45:52;;;;;;;3.93;2.80;;;17.80;1.00;;;;;;5113305;28;20952;-67
2023/05/20 08:48:19;;;;;;;4.60;2.20;;;17.80;1.00;;;;;;5114618;28;20473;-68
2023/05/20 08:50:50;;;;;;;3.17;2.17;;;17.80;1.00;;;;;;5113911;28;20455;-67
2023/05/20 08:53:18;;;;;;;4.70;2.60;;;18.00;1.00;;;;;;5114079;28;20443;-68
2023/05/20 08:55:48;;;;;;;2.50;2.00;;;18.10;1.00;;;;;;5106220;28;20963;-68
2023/05/20 08:58:18;;;;;;;3.73;2.03;;;18.20;1.00;;;;;;5100688;28;20446;-67
2023/05/20 09:00:44;;;;;;;3.30;2.03;;;18.30;1.00;;;;;;5099589;28;20445;-67
2023/05/20 09:03:11;;;;;;;3.47;2.27;;;18.40;1.00;;;;;;5100534;28;20455;-68
2023/05/20 09:05:38;;;;;;;5.53;3.73;;;18.30;1.00;;;;;;5113639;28;20451;-68
2023/05/20 09:08:08;;;;;;;4.17;3.00;;;18.30;1.00;;;;;;5114164;28;20938;-67
2023/05/20 09:10:36;;;;;;;2.87;2.13;;;18.30;1.00;;;;;;5073390;28;20445;-68
2023/05/20 09:13:04;;;;;;;3.77;2.60;;;18.40;1.00;;;;;;5072513;28;20955;-68
2023/05/20 09:15:31;;;;;;;2.97;2.30;;;18.40;1.00;;;;;;5072621;28;20458;-67
2023/05/20 09:18:01;;;;;;;3.83;2.50;;;18.50;1.00;;;;;;5072465;28;20481;-67
2023/05/20 09:20:29;;;;;;;2.97;2.43;;;18.60;99.90;;;;;;5072938;28;20449;-68
2023/05/20 09:23:00;;;;;;;2.70;2.33;;;18.60;99.90;;;;;;5072698;28;20481;-67
2023/05/20 09:25:28;;;;;;;4.20;2.23;;;18.50;99.90;;;;;;5070793;28;20452;-68
2023/05/20 09:27:55;;;;;;;2.80;1.93;;;18.60;99.90;;;;;;5072349;28;20450;-68
2023/05/20 09:30:22;;;;;;;2.83;2.03;;;18.90;99.90;;;;;;5073017;28;20445;-68
2023/05/20 09:32:53;;;;;;;2.40;2.10;;;19.10;99.90;;;;;;5072486;28;20488;-68
2023/05/20 09:35:22;;;;;;;5.53;2.50;;;19.20;99.90;;;;;;5072373;28;20441;-68
2023/05/20 09:37:51;;;;;;;5.00;2.73;;;19.30;99.90;;;;;;5072025;28;20463;-68
2023/05/20 09:40:21;;;;;;;3.40;2.33;;;19.50;99.90;;;;;;5073046;28;20791;-68
2023/05/20 09:42:53;;;;;;;2.80;2.13;;;19.40;99.90;;;;;;5072481;28;20573;-67
2023/05/20 09:45:21;;;;;;;2.87;2.23;;;19.40;99.90;;;;;;5072292;28;20953;-69
2023/05/20 09:47:50;;;;;;;2.90;2.20;;;19.50;99.90;;;;;;5071928;28;20454;-67
2023/05/20 09:50:20;;;;;;;2.40;2.07;;;19.80;99.90;;;;;;5059658;28;20457;-69
2023/05/20 09:52:47;;;;;;;5.30;3.50;;;19.50;99.90;;;;;;5071855;28;20454;-66
2023/05/20 09:55:15;;;;;;;3.47;2.53;;;19.30;99.90;;;;;;5072194;28;20749;-69
2023/05/20 09:57:42;;;;;;;2.90;2.13;;;19.50;99.90;;;;;;5071724;28;20457;-66
2023/05/20 10:00:12;;;;;;;3.27;2.90;;;19.40;99.90;;;;;;5072781;28;20442;-68
2023/05/20 10:02:42;;;;;;;3.10;2.23;;;19.60;99.90;;;;;;5072430;28;20554;-69
2023/05/20 10:05:16;;;;;;;2.30;2.10;;;19.70;99.90;;;;;;5071927;28;20506;-69
2023/05/20 10:08:09;;;;;;;3.30;2.70;;;19.80;99.90;;;;;;5072099;28;20449;-69
2023/05/20 10:10:46;;;;;;;3.50;2.43;;;19.90;99.90;;;;;;5072179;28;20905;-69
2023/05/20 10:13:21;;;;;;;4.27;2.80;;;20.00;99.90;;;;;;5072172;28;20929;-68
2023/05/20 10:16:13;;;;;;;3.20;2.33;;;20.00;99.90;;;;;;5071463;28;20455;-68
2023/05/20 10:19:03;;;;;;;3.37;2.57;;;20.20;99.90;;;;;;5072219;28;20451;-72
2023/05/20 10:21:31;;;;;;;2.83;2.10;;;20.40;99.90;;;;;;5062299;28;20886;-68
2023/05/20 10:24:06;;;;;;;3.13;2.43;;;20.70;99.90;;;;;;5071456;28;20449;-68
2023/05/20 10:26:36;;;;;;;3.00;2.10;;;20.50;99.90;;;;;;5069707;28;20550;-68
2023/05/20 10:29:14;;;;;;;3.47;2.60;;;20.60;99.90;;;;;;5071194;28;20969;-68
2023/05/20 10:31:49;;;;;;;3.10;2.40;;;20.60;99.90;;;;;;5071378;28;20477;-71
2023/05/20 10:34:16;;;;;;;4.10;2.53;;;20.80;99.90;;;;;;5072092;28;20947;-68
2023/05/20 10:36:47;;;;;;;3.27;2.10;;;20.80;99.90;;;;;;5070843;28;20442;-68
2023/05/20 10:39:17;;;;;;;4.17;3.23;;;20.60;99.90;;;;;;5071350;28;20446;-69
2023/05/20 10:41:44;;;;;;;3.77;2.37;;;20.70;99.90;;;;;;5071180;28;20595;-66
2023/05/20 10:44:10;;;;;;;2.93;2.57;;;20.90;99.90;;;;;;5071441;28;20457;-69
2023/05/20 10:46:38;;;;;;;2.90;2.03;;;21.00;99.90;;;;;;5071424;28;20548;-68
2023/05/20 10:49:16;;;;;;;3.80;2.70;;;21.10;99.90;;;;;;5071368;28;20850;-68
2023/05/20 10:51:46;;;;;;;4.07;2.40;;;21.10;99.90;;;;;;5070984;28;20451;-67
2023/05/20 10:54:14;;;;;;;2.60;2.10;;;21.20;99.90;;;;;;5071089;28;20472;-68
2023/05/20 10:56:51;;;;;;;2.50;1.80;;;21.60;99.90;;;;;;5061366;28;20442;-71
2023/05/20 10:59:18;;;;;;;3.90;2.40;;;21.30;99.90;;;;;;5069910;28;20444;-68
2023/05/20 11:01:47;;;;;;;3.17;2.27;;;21.30;99.90;;;;;;5058478;28;21018;-68
2023/05/20 11:04:16;;;;;;;3.17;2.40;;;21.10;99.90;;;;;;5071268;28;20537;-68
2023/05/20 11:06:50;;;;;;;2.37;2.10;;;21.40;99.90;;;;;;5070410;28;20805;-67
2023/05/20 11:09:17;;;;;;;2.77;2.17;;;21.30;99.90;;;;;;5090946;28;20547;-68
2023/05/20 11:11:44;;;;;;;2.60;2.30;;;21.50;99.90;;;;;;5111076;28;20448;-68
2023/05/20 11:14:13;;;;;;;3.33;2.43;;;21.80;99.90;;;;;;5111520;28;20439;-68
2023/05/20 11:16:40;;;;;;;4.70;3.00;;;21.90;99.90;;;;;;5111261;28;20847;-71
2023/05/20 11:19:08;;;;;;;3.10;2.27;;;22.10;99.90;;;;;;5111974;28;20448;-67
2023/05/20 11:21:43;;;;;;;3.47;2.57;;;22.20;99.90;;;;;;5111874;28;20504;-67
2023/05/20 11:24:09;;;;;;;3.00;2.23;;;22.30;99.90;;;;;;5111373;28;20810;-67
2023/05/20 11:26:37;;;;;;;3.03;2.20;;;22.30;99.90;;;;;;5109333;28;20535;-68
2023/05/20 11:29:04;;;;;;;2.57;2.10;;;22.50;99.90;;;;;;5110995;28;20500;-68
2023/05/20 11:31:31;;;;;;;4.40;3.17;;;;;;;;;;5111713;28;20452;-68
2023/05/20 11:34:01;;;;;;;5.23;2.97;;;;;;;;;;5110998;28;20483;-68
2023/05/20 11:36:31;;;;;;;2.40;2.00;;;;;;;;;;5111036;28;20812;-67
2023/05/20 11:39:00;;;;;;;2.33;1.60;;;;;;;;;;5110987;28;20455;-68
2023/05/20 11:41:27;;;;;;;3.37;2.40;;;;;;;;;;5111116;28;20934;-68
2023/05/20 11:43:58;;;;;;;2.10;1.60;;;;;;;;;;5110716;28;20454;-68
2023/05/20 11:46:26;;;;;;;3.53;2.43;;;;;;;;;;5110651;28;20444;-68
2023/05/20 11:48:54;;;;;;;3.00;2.20;;;;;;;;;;5110760;28;20450;-67
2023/05/20 11:51:24;;;;;;;3.80;2.20;;;;;;;;;;5110739;28;20530;-68
2023/05/20 11:53:51;;;;;;;2.60;2.07;;;;;;;;;;5110227;28;20447;-68
2023/05/20 11:56:21;;;;;;;3.63;2.10;;;;;;;;;;5102002;28;20452;-68
2023/05/20 11:58:48;;;;;;;2.50;2.17;;;;;;;;;;5110658;28;20440;-69
2023/05/20 12:01:15;;;;;;;2.60;1.90;;;;;;;;;;5096865;28;20480;-68
2023/05/20 12:03:42;;;;;;;3.17;2.50;;;;;;;;;;5110286;28;20483;-68
2023/05/20 12:06:12;;;;;;;3.40;2.30;;;;;;;;;;5110833;28;20818;-67
2023/05/20 12:08:39;;;;;;;3.33;2.53;;;;;;;;;;5111137;28;20559;-68
2023/05/20 12:11:06;;;;;;;2.20;1.97;;;;;;;;;;5111116;28;20450;-68
2023/05/20 12:13:35;;;;;;;2.53;2.13;;;;;;;;;;5111094;28;20447;-68
2023/05/20 12:16:03;;;;;;;3.60;1.90;;;22.80;99.90;;;;;;5113857;28;20439;-67
2023/05/20 12:18:29;;;;;;;3.67;2.30;;;24.50;50.20;;;;;;5114923;28;20451;-67
2023/05/20 12:20:56;;;;;;;2.70;2.10;;;24.70;41.80;;;;;;5114211;28;20454;-67
2023/05/20 12:23:23;;;;;;;3.63;2.27;;;24.60;36.20;;;;;;5114754;28;20499;-67
2023/05/20 12:25:50;;;;;;;2.83;2.17;;;24.30;35.00;;;;;;5111878;28;20452;-68
2023/05/20 12:28:17;;;;;;;3.87;2.57;;;23.90;34.30;;;;;;5114708;28;20826;-68
2023/05/20 12:30:45;;;;;;;2.60;1.93;;;23.80;35.20;;;;;;5114339;28;20492;-67
2023/05/20 12:33:12;;;;;;;3.17;2.60;;;23.60;36.50;;;;;;5114491;28;20459;-68
2023/05/20 12:35:41;;;;;;;2.50;2.20;;;23.30;39.60;;;;;;5113911;28;20448;-67
2023/05/20 12:38:08;;;;;;;2.03;1.77;;;23.50;38.60;;;;;;5114522;28;20838;-67
2023/05/20 12:40:35;;;;;;;2.50;2.30;;;23.70;37.00;;;;;;5114174;28;20960;-67
2023/05/20 12:43:03;;;;;;;2.90;2.40;;;23.70;34.60;;;;;;5113908;28;20889;-67
2023/05/20 12:45:30;;;;;;;2.13;1.93;;;23.90;32.90;;;;;;5100995;28;20555;-67
2023/05/20 12:47:58;;;;;;;2.80;2.13;;;23.90;33.20;;;;;;5113464;28;20444;-67
2023/05/20 12:50:25;;;;;;;2.93;2.23;;;24.40;29.20;;;;;;5114639;28;20554;-67
2023/05/20 12:52:52;;;;;;;2.93;2.60;;;24.20;27.90;;;;;;5113865;28;20806;-67
2023/05/20 12:55:19;;;;;;;2.30;2.00;;;24.10;37.70;;;;;;5110606;28;20444;-67
2023/05/20 12:57:47;;;;;;;2.67;2.10;;;24.00;27.70;;;;;;5108028;28;20542;-67